createdAt,value
2023-02-19T07:17:17.560Z,0.50
2023-02-19T07:32:22.115Z,1.30
2023-02-19T07:47:26.819Z,1.40
2023-02-19T08:02:48.931Z,2.15
2023-02-19T08:17:53.511Z,2.30
2023-02-19T08:33:02.096Z,2.35
2023-02-19T08:48:07.459Z,2.20
2023-02-19T09:03:12.360Z,2.30
2023-02-19T09:18:16.858Z,1.60
2023-02-19T09:33:21.418Z,1.30
2023-02-19T09:48:25.948Z,1.02
2023-02-19T10:03:35.355Z,1.05
2023-02-19T10:18:43.706Z,4.18
2023-02-19T10:33:53.503Z,4.38
2023-02-19T10:49:00.638Z,4.40
2023-02-19T11:04:19.428Z,4.00
2023-02-19T11:19:30.093Z,4.53
2023-02-19T11:34:35.649Z,3.73
2023-02-19T11:49:49.264Z,4.57
2023-02-19T12:05:19.809Z,4.32
2023-02-19T12:20:31.788Z,3.50
2023-02-19T12:35:57.562Z,3.33
2023-02-19T12:51:06.469Z,4.25
2023-02-19T13:06:23.403Z,3.80
2023-02-19T13:21:50.446Z,3.80
2023-02-19T13:36:55.658Z,3.30
2023-02-19T13:52:01.623Z,3.28
2023-02-19T14:07:37.191Z,2.72
2023-02-19T14:23:03.053Z,2.38
2023-02-19T14:38:08.360Z,2.47
2023-02-19T14:53:17.605Z,2.30
2023-02-19T15:08:30.136Z,2.40
2023-02-19T15:23:35.919Z,2.40
2023-02-19T15:38:40.814Z,1.92
2023-02-19T15:53:49.760Z,2.08
2023-02-19T16:09:05.653Z,1.75
2023-02-19T16:24:18.031Z,1.83
2023-02-19T16:39:26.497Z,2.17
2023-02-19T16:54:31.037Z,1.52
2023-02-19T17:09:35.623Z,1.50
2023-02-19T17:24:40.251Z,1.17
2023-02-19T17:39:44.898Z,1.42
2023-02-19T17:54:49.412Z,1.52
2023-02-19T18:09:53.914Z,1.20
2023-02-19T18:24:58.432Z,1.38
2023-02-19T18:40:04.017Z,1.30
2023-02-19T18:55:10.777Z,1.10
2023-02-19T19:10:15.564Z,1.13
2023-02-19T19:25:20.351Z,1.10
2023-02-19T19:40:24.941Z,1.10
2023-02-19T19:55:29.685Z,0.82
2023-02-19T20:10:34.304Z,1.13
2023-02-19T20:25:38.858Z,0.93
2023-02-19T20:40:43.452Z,1.10
